Time;durP1;ratioP1;P1;durP2;ratioP2;P2;SDS_P1;SDS_P2;PMS_P1;PMS_P2;Temp;Humidity;BMP_temperature;BMP_pressure;BME280_temperature;BME280_humidity;BME280_pressure;Samples;Min_cycle;Max_cycle;Signal;HPM_P1;HPM_P2
2023/08/03 00:01:57;;;;;;;5.80;2.87;;;23.10;99.90;;;;;;5107933;28;20442;-84
2023/08/03 00:04:23;;;;;;;3.20;2.90;;;23.10;99.90;;;;;;5107887;28;20200;-76
2023/08/03 00:06:48;;;;;;;3.40;3.10;;;23.10;99.90;;;;;;5108027;28;20213;-76
2023/08/03 00:09:14;;;;;;;3.57;3.17;;;23.10;99.90;;;;;;5109277;28;20428;-83
2023/08/03 00:11:40;;;;;;;3.73;2.63;;;23.10;99.90;;;;;;5108078;28;20203;-83
2023/08/03 00:14:05;;;;;;;3.73;3.37;;;23.10;99.90;;;;;;5108025;28;20218;-75
2023/08/03 00:16:31;;;;;;;3.40;3.00;;;23.10;99.90;;;;;;5107804;28;20180;-83
2023/08/03 00:18:57;;;;;;;3.57;3.23;;;23.00;99.90;;;;;;5116030;27;20587;-76
2023/08/03 00:21:23;;;;;;;4.40;3.87;;;23.00;99.90;;;;;;5109599;27;20862;-75
2023/08/03 00:23:49;;;;;;;3.80;3.10;;;23.00;99.90;;;;;;5129860;27;20395;-82
2023/08/03 00:26:15;;;;;;;4.03;3.43;;;23.00;99.90;;;;;;5129325;27;20196;-83
2023/08/03 00:28:42;;;;;;;3.93;2.77;;;23.00;99.90;;;;;;5111235;27;20407;-81
2023/08/03 00:31:08;;;;;;;4.03;3.40;;;23.00;99.90;;;;;;5129523;27;20199;-83
2023/08/03 00:33:33;;;;;;;3.43;3.13;;;22.90;99.90;;;;;;5129599;27;20399;-76
2023/08/03 00:35:59;;;;;;;4.00;3.30;;;22.90;99.90;;;;;;5128925;27;20274;-75
2023/08/03 00:38:24;;;;;;;3.50;3.03;;;22.80;99.90;;;;;;5129770;27;20171;-76
2023/08/03 00:40:54;;;;;;;5.20;3.10;;;22.90;99.90;;;;;;5109987;27;20586;-83
2023/08/03 00:43:19;;;;;;;4.63;3.00;;;22.80;99.90;;;;;;5129603;27;20304;-83
2023/08/03 00:45:45;;;;;;;3.40;3.10;;;22.80;99.90;;;;;;5129013;27;20608;-83
2023/08/03 00:48:11;;;;;;;3.60;3.30;;;22.80;99.90;;;;;;5110933;27;20656;-82
2023/08/03 00:50:37;;;;;;;3.20;2.93;;;22.80;99.90;;;;;;5110335;27;20594;-76
2023/08/03 00:53:03;;;;;;;4.43;4.03;;;22.80;99.90;;;;;;5111203;27;20175;-76
2023/08/03 00:55:29;;;;;;;3.90;3.40;;;22.90;99.90;;;;;;5110117;27;21013;-75
2023/08/03 00:57:55;;;;;;;4.10;3.60;;;22.90;99.90;;;;;;5110714;27;20456;-83
2023/08/03 01:00:21;;;;;;;5.17;3.30;;;22.90;99.90;;;;;;5109892;27;20232;-75
2023/08/03 01:02:46;;;;;;;5.27;4.07;;;22.90;99.90;;;;;;5109973;27;20464;-83
2023/08/03 01:05:12;;;;;;;4.10;3.70;;;22.80;99.90;;;;;;5110317;27;20439;-76
2023/08/03 01:07:38;;;;;;;4.37;3.70;;;22.80;99.90;;;;;;5128652;27;20175;-80
2023/08/03 01:10:04;;;;;;;4.20;3.80;;;22.80;99.90;;;;;;5128129;27;20194;-83
2023/08/03 01:12:30;;;;;;;3.93;3.63;;;22.70;99.90;;;;;;5128893;27;20168;-83
2023/08/03 01:14:56;;;;;;;4.70;3.97;;;22.70;99.90;;;;;;5109805;27;20427;-83
2023/08/03 01:17:21;;;;;;;7.00;4.20;;;22.70;99.90;;;;;;5128553;27;20243;-83
2023/08/03 01:19:48;;;;;;;4.20;3.80;;;22.70;99.90;;;;;;5108792;27;20595;-76
2023/08/03 01:22:13;;;;;;;5.40;4.80;;;22.70;99.90;;;;;;5109903;27;20415;-81
2023/08/03 01:24:40;;;;;;;6.60;4.50;;;22.70;99.90;;;;;;5128555;27;20423;-84
2023/08/03 01:27:06;;;;;;;5.10;4.60;;;22.70;99.90;;;;;;5110164;27;20476;-76
2023/08/03 01:29:32;;;;;;;5.10;4.70;;;22.70;99.90;;;;;;5109608;27;20445;-82
2023/08/03 01:32:00;;;;;;;5.47;4.60;;;22.70;99.90;;;;;;5109973;27;20821;-83
2023/08/03 01:34:29;;;;;;;5.70;5.10;;;22.70;99.90;;;;;;5109418;27;20516;-75
2023/08/03 01:36:55;;;;;;;4.90;4.50;;;22.70;99.90;;;;;;5109536;27;20857;-83
2023/08/03 01:39:24;;;;;;;5.63;4.90;;;22.60;99.90;;;;;;5128258;27;20428;-83
2023/08/03 01:41:50;;;;;;;5.87;4.87;;;22.60;99.90;;;;;;5128093;27;20407;-82
2023/08/03 01:44:31;;;;;;;4.77;4.40;;;22.50;99.90;;;;;;5128006;27;20825;-83
2023/08/03 01:46:59;;;;;;;6.90;5.30;;;22.50;99.90;;;;;;5109348;27;20950;-83
2023/08/03 01:49:27;;;;;;;6.00;5.50;;;22.50;99.90;;;;;;5109227;27;20458;-75
2023/08/03 01:51:53;;;;;;;5.50;4.90;;;22.50;99.90;;;;;;5128003;27;20455;-83
2023/08/03 01:54:18;;;;;;;5.13;4.73;;;22.50;99.90;;;;;;5128473;27;20451;-75
2023/08/03 01:56:45;;;;;;;6.47;5.87;;;22.50;99.90;;;;;;5127800;27;20179;-75
2023/08/03 01:59:11;;;;;;;5.80;5.17;;;22.50;99.90;;;;;;5128153;27;20254;-75
2023/08/03 02:01:37;;;;;;;5.60;5.20;;;22.50;99.90;;;;;;5109145;27;20419;-83
2023/08/03 02:04:03;;;;;;;6.23;5.73;;;22.50;99.90;;;;;;5126846;27;20411;-83
2023/08/03 02:06:29;;;;;;;6.57;5.97;;;22.50;99.90;;;;;;5109136;27;20471;-75
2023/08/03 02:08:55;;;;;;;10.30;5.80;;;22.50;99.90;;;;;;5128044;27;20394;-83
2023/08/03 02:11:20;;;;;;;6.60;5.90;;;22.40;99.90;;;;;;5127833;27;20760;-83
2023/08/03 02:13:46;;;;;;;5.80;5.30;;;22.40;99.90;;;;;;5127576;27;20228;-83
2023/08/03 02:16:12;;;;;;;5.77;5.13;;;22.40;99.90;;;;;;5108614;27;20202;-75
2023/08/03 02:18:41;;;;;;;6.43;5.23;;;22.40;99.90;;;;;;5108641;27;20235;-76
2023/08/03 02:21:07;;;;;;;7.50;5.33;;;22.40;99.90;;;;;;5106891;27;20490;-83
2023/08/03 02:23:33;;;;;;;6.70;6.10;;;22.40;99.90;;;;;;5127160;27;20396;-83
2023/08/03 02:26:03;;;;;;;6.80;5.47;;;22.40;99.90;;;;;;5127190;27;20450;-83
2023/08/03 02:28:29;;;;;;;6.73;5.77;;;22.30;99.90;;;;;;5127208;27;20171;-75
2023/08/03 02:30:55;;;;;;;6.23;5.63;;;22.20;99.90;;;;;;5108302;27;20454;-75
2023/08/03 02:33:21;;;;;;;6.10;5.40;;;22.10;99.90;;;;;;5127424;27;20767;-82
2023/08/03 02:35:46;;;;;;;7.30;6.60;;;22.10;99.90;;;;;;5127097;27;20222;-75
2023/08/03 02:38:12;;;;;;;6.10;5.60;;;22.00;99.90;;;;;;5108586;27;20375;-83
2023/08/03 02:40:38;;;;;;;5.80;5.30;;;21.90;99.90;;;;;;5108047;27;20570;-76
2023/08/03 02:43:03;;;;;;;6.70;6.10;;;21.90;99.90;;;;;;5108733;27;20209;-83
2023/08/03 02:45:29;;;;;;;6.10;5.60;;;21.80;99.90;;;;;;5107998;27;20202;-83
2023/08/03 02:47:55;;;;;;;6.40;5.80;;;21.80;99.90;;;;;;5108304;27;20186;-75
2023/08/03 02:50:21;;;;;;;7.17;6.03;;;21.80;99.90;;;;;;5108236;27;20730;-83
2023/08/03 02:52:47;;;;;;;6.90;6.30;;;21.80;99.90;;;;;;5108408;27;20438;-83
2023/08/03 02:55:13;;;;;;;7.70;6.40;;;21.80;99.90;;;;;;5107947;27;20487;-76
2023/08/03 02:57:39;;;;;;;7.37;6.73;;;21.70;99.90;;;;;;5126887;27;20659;-76
2023/08/03 03:00:06;;;;;;;6.90;6.20;;;21.70;99.90;;;;;;5126306;27;20465;-82
2023/08/03 03:02:31;;;;;;;7.47;6.83;;;21.70;99.90;;;;;;5108213;27;20950;-76
2023/08/03 03:04:57;;;;;;;7.70;7.00;;;21.70;99.90;;;;;;5125705;27;20450;-83
2023/08/03 03:07:23;;;;;;;7.10;6.27;;;21.70;99.90;;;;;;5126773;27;20220;-82
2023/08/03 03:09:48;;;;;;;7.00;6.40;;;21.60;99.90;;;;;;5126339;27;20191;-75
2023/08/03 03:12:14;;;;;;;6.50;5.77;;;21.60;99.90;;;;;;5108370;27;20186;-75
2023/08/03 03:14:40;;;;;;;6.80;6.20;;;21.70;99.90;;;;;;5126546;27;20187;-75
2023/08/03 03:17:06;;;;;;;7.33;6.67;;;21.70;99.90;;;;;;5108176;27;20628;-76
2023/08/03 03:19:32;;;;;;;6.93;6.23;;;21.80;99.90;;;;;;5107636;28;20231;-76
2023/08/03 03:21:57;;;;;;;8.47;7.17;;;21.80;99.90;;;;;;5107775;27;20514;-83
2023/08/03 03:24:23;;;;;;;7.30;6.63;;;21.80;99.90;;;;;;5124872;27;20183;-83
2023/08/03 03:26:48;;;;;;;6.97;6.47;;;21.90;99.90;;;;;;5107908;28;20179;-83
2023/08/03 03:29:14;;;;;;;7.43;6.83;;;21.90;99.90;;;;;;5126106;28;20261;-76
2023/08/03 03:31:40;;;;;;;7.97;7.27;;;21.80;99.90;;;;;;5107634;28;20186;-79
2023/08/03 03:34:06;;;;;;;7.23;6.63;;;21.80;99.90;;;;;;5107946;28;20563;-75
2023/08/03 03:36:33;;;;;;;7.63;6.20;;;21.80;99.90;;;;;;5107759;28;20214;-76
2023/08/03 03:38:59;;;;;;;7.50;6.80;;;21.80;99.90;;;;;;5124992;28;20494;-75
2023/08/03 03:41:24;;;;;;;7.90;7.20;;;21.80;99.90;;;;;;5125462;28;20570;-75
2023/08/03 03:43:50;;;;;;;7.40;6.80;;;21.80;99.90;;;;;;5107351;28;20403;-75
2023/08/03 03:46:15;;;;;;;7.60;7.00;;;21.80;99.90;;;;;;5125658;28;20282;-76
2023/08/03 03:48:41;;;;;;;8.10;7.40;;;21.80;99.90;;;;;;5107245;28;20159;-83
2023/08/03 03:51:07;;;;;;;7.60;7.10;;;21.80;99.90;;;;;;5126183;28;20226;-83
2023/08/03 03:53:32;;;;;;;8.17;7.47;;;21.80;99.90;;;;;;5126258;28;20175;-83
2023/08/03 03:55:58;;;;;;;7.70;7.10;;;21.70;99.90;;;;;;5125731;28;20655;-75
2023/08/03 03:58:24;;;;;;;8.13;7.33;;;21.80;99.90;;;;;;5107478;28;20179;-82
2023/08/03 04:00:49;;;;;;;8.47;7.67;;;21.80;99.90;;;;;;5125583;28;20219;-74
2023/08/03 04:03:15;;;;;;;9.47;8.00;;;21.70;99.90;;;;;;5125317;28;20409;-82
2023/08/03 04:05:41;;;;;;;9.53;7.77;;;21.70;99.90;;;;;;5107010;28;20228;-74
2023/08/03 04:08:07;;;;;;;8.63;7.90;;;21.80;99.90;;;;;;5107526;28;20168;-82
2023/08/03 04:10:35;;;;;;;10.23;8.00;;;21.70;99.90;;;;;;5107151;28;20439;-74
2023/08/03 04:13:01;;;;;;;9.13;7.90;;;21.70;99.90;;;;;;5106694;28;20179;-82
2023/08/03 04:15:27;;;;;;;9.23;8.40;;;21.70;99.90;;;;;;5124769;28;20443;-74
2023/08/03 04:17:52;;;;;;;10.10;9.20;;;21.60;99.90;;;;;;5125871;28;20403;-75
2023/08/03 04:20:18;;;;;;;9.33;8.53;;;21.60;99.90;;;;;;5106566;28;20241;-74
2023/08/03 04:22:44;;;;;;;9.37;8.57;;;21.60;99.90;;;;;;5125466;28;20552;-74
2023/08/03 04:25:10;;;;;;;10.27;9.37;;;21.60;99.90;;;;;;5105446;28;20546;-81
2023/08/03 04:27:37;;;;;;;11.13;9.77;;;21.60;99.90;;;;;;5106477;28;20183;-81
2023/08/03 04:30:02;;;;;;;10.80;9.80;;;21.70;99.90;;;;;;5125049;28;20194;-82
2023/08/03 04:32:28;;;;;;;10.83;9.40;;;21.70;99.90;;;;;;5125790;28;20407;-75
2023/08/03 04:34:54;;;;;;;9.33;8.63;;;21.70;99.90;;;;;;5125125;28;20426;-75
2023/08/03 04:37:19;;;;;;;9.80;9.00;;;21.70;99.90;;;;;;5125585;28;20175;-74
2023/08/03 04:39:46;;;;;;;10.47;9.40;;;21.80;99.90;;;;;;5106708;28;20235;-82
2023/08/03 04:42:12;;;;;;;10.90;9.90;;;21.80;99.90;;;;;;5125763;27;20185;-74
2023/08/03 04:44:37;;;;;;;10.80;9.70;;;21.90;99.90;;;;;;5109344;27;20423;-74
2023/08/03 04:47:04;;;;;;;9.87;9.07;;;21.90;99.90;;;;;;5110415;27;20179;-81
2023/08/03 04:49:29;;;;;;;9.90;9.00;;;22.00;99.90;;;;;;5110285;27;20431;-74
2023/08/03 04:51:55;;;;;;;9.97;9.10;;;22.00;99.90;;;;;;5129326;27;20476;-82
2023/08/03 04:54:21;;;;;;;10.23;9.43;;;22.10;99.90;;;;;;5110293;27;20209;-82
2023/08/03 04:56:47;;;;;;;10.33;9.40;;;22.10;99.90;;;;;;5128735;27;20195;-82
2023/08/03 04:59:13;;;;;;;10.40;9.50;;;22.10;99.90;;;;;;5109964;27;20997;-74
2023/08/03 05:01:39;;;;;;;9.33;8.47;;;22.20;99.90;;;;;;5110610;27;20277;-82
2023/08/03 05:04:04;;;;;;;9.60;8.60;;;22.20;99.90;;;;;;5109599;27;20486;-82
2023/08/03 05:06:30;;;;;;;10.50;8.27;;;22.20;99.90;;;;;;5110412;27;20212;-74
2023/08/03 05:08:56;;;;;;;9.60;8.60;;;22.30;99.90;;;;;;5110011;27;20179;-74
2023/08/03 05:11:22;;;;;;;8.60;7.80;;;22.30;99.90;;;;;;5128636;27;20184;-82
2023/08/03 05:13:47;;;;;;;9.17;8.37;;;22.40;99.90;;;;;;5110155;27;20250;-74
2023/08/03 05:16:13;;;;;;;8.50;7.80;;;22.50;99.90;;;;;;5109447;27;20229;-82
2023/08/03 05:18:39;;;;;;;9.40;8.60;;;22.50;99.90;;;;;;5109896;27;20412;-74
2023/08/03 05:21:05;;;;;;;9.33;8.63;;;22.60;99.90;;;;;;5109655;27;20219;-82
2023/08/03 05:23:30;;;;;;;9.47;8.77;;;22.70;99.90;;;;;;5127811;27;20754;-75
2023/08/03 05:25:57;;;;;;;8.97;8.37;;;22.70;99.90;;;;;;5108940;27;20200;-75
2023/08/03 05:28:26;;;;;;;9.50;8.50;;;22.80;99.90;;;;;;5108231;27;20179;-75
2023/08/03 05:30:52;;;;;;;9.07;8.13;;;22.80;99.90;;;;;;5126522;27;20436;-74
2023/08/03 05:33:17;;;;;;;8.30;7.60;;;22.90;99.90;;;;;;5107317;27;20495;-79
2023/08/03 05:35:46;;;;;;;8.67;7.87;;;23.00;99.90;;;;;;5126281;27;20226;-82
2023/08/03 05:38:14;;;;;;;8.20;7.50;;;23.00;99.90;;;;;;5126258;27;20286;-75
2023/08/03 05:40:40;;;;;;;8.50;7.70;;;23.10;99.90;;;;;;5106822;27;20902;-82
2023/08/03 05:43:27;;;;;;;8.63;7.93;;;23.20;99.90;;;;;;5105426;27;20819;-75
2023/08/03 05:46:01;;;;;;;7.40;6.70;;;23.20;99.90;;;;;;5121964;27;20448;-82
2023/08/03 05:48:29;;;;;;;7.50;6.90;;;23.30;99.90;;;;;;5124167;27;20863;-82
2023/08/03 05:50:56;;;;;;;9.17;8.30;;;23.40;99.90;;;;;;5124064;27;21080;-82
2023/08/03 05:53:22;;;;;;;8.77;7.97;;;23.50;99.90;;;;;;5103575;27;20558;-83
2023/08/03 05:55:48;;;;;;;8.97;8.17;;;23.60;99.90;;;;;;5105751;27;20452;-75
2023/08/03 05:58:17;;;;;;;7.30;6.67;;;23.70;99.90;;;;;;5102397;27;20243;-82
2023/08/03 06:00:47;;;;;;;8.20;7.40;;;23.70;99.90;;;;;;5123884;27;20579;-75
2023/08/03 06:03:15;;;;;;;10.57;8.00;;;23.90;99.90;;;;;;5124328;27;20692;-83
2023/08/03 06:05:43;;;;;;;7.70;7.00;;;24.00;99.90;;;;;;5122933;27;21105;-82
2023/08/03 06:08:27;;;;;;;7.37;6.77;;;24.10;99.90;;;;;;5102707;27;20421;-75
2023/08/03 06:10:55;;;;;;;8.13;7.03;;;24.20;99.90;;;;;;5124793;27;20647;-75
2023/08/03 06:13:27;;;;;;;7.77;7.07;;;24.30;99.90;;;;;;5124773;27;20398;-75
2023/08/03 06:15:52;;;;;;;9.00;6.70;;;24.40;99.90;;;;;;5123057;27;21064;-82
2023/08/03 06:18:19;;;;;;;9.70;7.77;;;24.50;99.90;;;;;;5104037;27;20700;-82
2023/08/03 06:20:52;;;;;;;7.67;6.97;;;24.60;99.90;;;;;;5103702;27;20362;-83
2023/08/03 06:23:19;;;;;;;7.23;5.70;;;24.70;99.90;;;;;;5103659;27;20795;-75
2023/08/03 06:25:47;;;;;;;7.57;6.87;;;24.80;99.90;;;;;;5102947;27;20472;-75
2023/08/03 06:28:16;;;;;;;6.63;5.90;;;24.90;99.90;;;;;;5120439;27;20436;-75
2023/08/03 06:30:42;;;;;;;6.67;5.60;;;25.00;99.90;;;;;;5101584;27;20977;-83
2023/08/03 06:33:11;;;;;;;8.30;5.97;;;25.00;99.90;;;;;;5103730;27;20958;-82
2023/08/03 06:35:42;;;;;;;9.00;7.00;;;25.20;99.90;;;;;;5122902;27;20427;-75
2023/08/03 06:38:14;;;;;;;7.17;5.77;;;25.30;99.90;;;;;;5103503;27;20426;-75
2023/08/03 06:40:40;;;;;;;6.87;6.17;;;25.40;99.90;;;;;;5121499;27;20504;-75
2023/08/03 06:43:07;;;;;;;11.80;6.17;;;25.40;99.90;;;;;;5103461;27;20951;-83
2023/08/03 06:45:34;;;;;;;5.97;5.47;;;25.50;99.90;;;;;;5103559;27;20542;-75
2023/08/03 06:48:01;;;;;;;6.37;5.77;;;25.60;99.90;;;;;;5123782;27;20404;-82
2023/08/03 06:50:29;;;;;;;9.10;6.00;;;25.70;99.90;;;;;;5122208;27;20462;-75
2023/08/03 06:52:56;;;;;;;6.67;6.17;;;25.80;99.90;;;;;;5104386;27;20807;-75
2023/08/03 06:55:22;;;;;;;7.03;6.23;;;25.80;99.90;;;;;;5120724;27;21017;-75
2023/08/03 06:57:47;;;;;;;5.90;5.40;;;26.00;99.90;;;;;;5119376;27;20403;-83
2023/08/03 07:00:14;;;;;;;6.43;5.83;;;26.00;99.90;;;;;;5102140;27;20557;-83
2023/08/03 07:02:40;;;;;;;6.43;5.80;;;26.20;99.90;;;;;;5102735;27;20644;-83
2023/08/03 07:05:06;;;;;;;5.70;5.20;;;26.20;99.90;;;;;;5119886;27;20435;-82
2023/08/03 07:07:32;;;;;;;7.30;6.23;;;26.30;99.90;;;;;;5100319;27;20421;-82
2023/08/03 07:09:59;;;;;;;15.10;6.90;;;26.30;99.90;;;;;;5100183;28;20348;-83
2023/08/03 07:12:26;;;;;;;6.53;5.93;;;26.50;99.90;;;;;;5093051;27;20179;-75
2023/08/03 07:14:51;;;;;;;5.50;4.93;;;26.50;99.90;;;;;;5117141;27;20480;-83
2023/08/03 07:17:17;;;;;;;7.47;6.60;;;26.60;99.90;;;;;;5117781;27;20811;-83
2023/08/03 07:19:43;;;;;;;7.40;5.87;;;26.70;99.90;;;;;;5115689;27;20540;-75
2023/08/03 07:22:09;;;;;;;6.80;6.20;;;26.90;99.90;;;;;;5119246;27;20560;-75
2023/08/03 07:24:35;;;;;;;8.23;6.20;;;27.00;99.90;;;;;;5101777;27;20454;-75
2023/08/03 07:27:02;;;;;;;6.93;5.70;;;27.10;99.90;;;;;;5101099;27;20440;-84
2023/08/03 07:29:29;;;;;;;7.00;6.30;;;27.20;99.90;;;;;;5121032;27;20438;-84
2023/08/03 07:31:55;;;;;;;6.67;6.07;;;27.40;99.90;;;;;;5118042;28;20650;-75
2023/08/03 07:34:21;;;;;;;9.60;6.00;;;27.50;99.90;;;;;;5120949;27;20974;-84
2023/08/03 07:36:50;;;;;;;8.90;6.07;;;27.60;99.90;;;;;;5102462;28;20415;-76
2023/08/03 07:39:15;;;;;;;6.30;5.70;;;27.80;99.90;;;;;;5120661;28;20945;-83
2023/08/03 07:41:41;;;;;;;5.87;5.37;;;27.90;99.90;;;;;;5119387;28;20479;-83
2023/08/03 07:44:07;;;;;;;6.70;5.50;;;28.00;99.90;;;;;;5101360;28;20450;-82
2023/08/03 07:46:33;;;;;;;5.93;5.00;;;28.20;99.90;;;;;;5114422;28;20185;-75
2023/08/03 07:48:58;;;;;;;6.23;4.97;;;28.30;99.90;;;;;;5093809;28;20180;-76
2023/08/03 07:51:24;;;;;;;10.60;5.13;;;28.30;99.90;;;;;;5103055;28;20193;-84
2023/08/03 07:53:51;;;;;;;6.57;5.00;;;28.30;99.90;;;;;;5122171;28;20664;-75
2023/08/03 07:56:19;;;;;;;7.47;5.60;;;28.50;99.90;;;;;;5103064;28;20261;-76
2023/08/03 07:58:45;;;;;;;5.60;5.07;;;28.60;99.90;;;;;;5104250;28;20603;-76
2023/08/03 08:01:11;;;;;;;5.27;4.87;;;28.80;99.90;;;;;;5120875;28;20566;-84
2023/08/03 08:03:38;;;;;;;6.13;5.03;;;28.80;99.90;;;;;;5101755;28;20501;-76
2023/08/03 08:06:15;;;;;;;5.87;5.03;;;29.00;99.90;;;;;;5121775;28;20601;-84
2023/08/03 08:08:42;;;;;;;6.07;5.00;;;29.10;99.90;;;;;;5112989;28;20675;-85
2023/08/03 08:11:08;;;;;;;5.30;4.80;;;29.20;99.90;;;;;;5100750;28;20848;-76
2023/08/03 08:13:34;;;;;;;4.90;4.50;;;29.40;99.90;;;;;;5119410;28;20398;-76
2023/08/03 08:16:02;;;;;;;5.60;5.10;;;29.50;99.90;;;;;;5098566;28;20475;-77
2023/08/03 08:18:28;;;;;;;5.97;5.37;;;29.60;99.90;;;;;;5093901;27;20454;-85
2023/08/03 08:20:59;;;;;;;7.03;4.50;;;29.70;99.90;;;;;;5119133;27;20486;-85
2023/08/03 08:23:25;;;;;;;6.17;4.80;;;29.80;99.90;;;;;;5120613;27;20686;-76
2023/08/03 08:25:51;;;;;;;6.00;4.70;;;29.80;99.90;;;;;;5121046;27;20490;-76
2023/08/03 08:28:17;;;;;;;4.90;4.50;;;30.00;99.90;;;;;;5122233;27;20499;-84
2023/08/03 08:30:44;;;;;;;5.97;4.70;;;30.10;99.90;;;;;;5103558;27;20552;-76
2023/08/03 08:33:10;;;;;;;5.07;4.57;;;30.20;99.90;;;;;;5105338;27;20485;-77
2023/08/03 08:35:36;;;;;;;6.57;5.57;;;30.30;99.90;;;;;;5121230;27;20814;-85
2023/08/03 08:38:06;;;;;;;5.63;4.63;;;30.50;99.90;;;;;;5121580;27;20814;-85
2023/08/03 08:40:39;;;;;;;9.10;5.27;;;30.50;99.90;;;;;;5083063;28;20954;-85
2023/08/03 08:43:05;;;;;;;4.27;3.93;;;30.60;99.90;;;;;;5102203;28;20426;-85
2023/08/03 08:45:31;;;;;;;4.90;4.40;;;30.60;99.90;;;;;;5100586;28;20801;-76
2023/08/03 08:47:58;;;;;;;7.70;4.50;;;30.70;99.90;;;;;;5093133;27;20777;-84
2023/08/03 08:50:23;;;;;;;5.90;5.30;;;30.70;99.90;;;;;;5105655;27;20442;-77
2023/08/03 08:52:50;;;;;;;6.03;5.27;;;30.70;99.90;;;;;;5124998;27;20763;-77
2023/08/03 08:55:19;;;;;;;5.47;4.07;;;30.70;99.90;;;;;;5122529;27;20195;-77
2023/08/03 08:57:45;;;;;;;7.53;5.03;;;30.70;99.90;;;;;;5104816;27;21119;-76
2023/08/03 09:00:11;;;;;;;7.37;5.10;;;30.70;99.90;;;;;;5121397;27;20550;-76
2023/08/03 09:02:37;;;;;;;6.93;5.20;;;30.70;99.90;;;;;;5119707;27;20415;-84
2023/08/03 09:05:13;;;;;;;4.97;4.50;;;30.60;99.90;;;;;;5102496;27;20795;-86
2023/08/03 09:07:39;;;;;;;5.50;4.73;;;30.60;99.90;;;;;;5120992;27;20738;-76
2023/08/03 09:10:05;;;;;;;8.93;4.67;;;30.70;99.90;;;;;;5100434;27;20589;-76
2023/08/03 09:12:30;;;;;;;5.27;4.47;;;30.70;99.90;;;;;;5103370;27;20179;-85
2023/08/03 09:14:58;;;;;;;6.33;5.03;;;30.80;99.90;;;;;;5119556;27;20546;-76
2023/08/03 09:17:24;;;;;;;4.67;4.17;;;30.80;99.90;;;;;;5103723;27;20766;-85
2023/08/03 09:19:54;;;;;;;5.33;4.93;;;30.90;99.90;;;;;;5125776;27;20565;-84
2023/08/03 09:22:23;;;;;;;5.00;4.60;;;31.00;99.90;;;;;;5108181;27;20509;-76
2023/08/03 09:25:09;;;;;;;5.30;4.73;;;31.00;99.90;;;;;;5098630;28;20475;-76
2023/08/03 09:27:36;;;;;;;6.03;4.23;;;31.00;99.90;;;;;;5106763;27;20482;-85
2023/08/03 09:30:04;;;;;;;6.70;5.20;;;31.00;99.90;;;;;;5120803;27;20594;-76
2023/08/03 09:32:36;;;;;;;4.97;4.57;;;31.00;99.90;;;;;;5123644;27;20426;-77
2023/08/03 09:35:03;;;;;;;5.47;4.93;;;31.00;99.90;;;;;;5105120;27;20506;-84
2023/08/03 09:37:33;;;;;;;7.60;5.10;;;31.00;99.90;;;;;;5104705;27;20419;-85
2023/08/03 09:40:02;;;;;;;7.03;4.47;;;31.00;99.90;;;;;;5121584;27;20467;-86
2023/08/03 09:42:31;;;;;;;4.93;4.43;;;31.00;99.90;;;;;;5104310;27;20821;-85
2023/08/03 09:45:03;;;;;;;4.50;4.00;;;30.90;99.90;;;;;;5121397;27;20431;-76
2023/08/03 09:47:33;;;;;;;6.60;4.80;;;31.00;99.90;;;;;;5117844;27;20406;-85
2023/08/03 09:49:59;;;;;;;6.30;5.03;;;31.00;99.90;;;;;;5096288;27;20797;-76
2023/08/03 09:52:30;;;;;;;5.53;5.03;;;31.10;99.90;;;;;;5103801;27;20987;-77
2023/08/03 09:55:12;;;;;;;8.10;5.00;;;31.20;99.90;;;;;;5107216;27;20194;-85
2023/08/03 09:57:40;;;;;;;5.67;5.10;;;31.20;99.90;;;;;;5108368;27;20764;-76
2023/08/03 10:00:07;;;;;;;6.53;5.13;;;31.20;99.90;;;;;;5106075;27;20478;-85
2023/08/03 10:02:51;;;;;;;5.67;5.17;;;31.20;99.90;;;;;;5105718;27;20466;-84
2023/08/03 10:05:19;;;;;;;5.33;4.83;;;31.20;99.90;;;;;;5123503;27;20455;-84
2023/08/03 10:07:55;;;;;;;6.90;4.83;;;31.20;99.90;;;;;;5107152;27;20596;-76
2023/08/03 10:10:23;;;;;;;6.90;4.80;;;31.10;99.90;;;;;;5124465;27;20439;-85
2023/08/03 10:12:56;;;;;;;6.00;5.40;;;31.10;99.90;;;;;;5124463;27;21048;-85
2023/08/03 10:15:23;;;;;;;7.40;5.50;;;31.00;99.90;;;;;;5105484;27;20442;-85
2023/08/03 10:17:49;;;;;;;6.60;5.17;;;30.90;99.90;;;;;;5119383;27;20421;-85
2023/08/03 10:20:16;;;;;;;6.83;5.10;;;31.00;99.90;;;;;;5123779;27;20489;-85
2023/08/03 10:23:12;;;;;;;6.10;5.47;;;30.90;99.90;;;;;;5100385;27;20429;-77
2023/08/03 10:25:56;;;;;;;5.80;4.70;;;30.90;99.90;;;;;;5083808;27;20594;-84
2023/08/03 10:28:40;;;;;;;7.33;5.47;;;30.90;99.90;;;;;;5106886;27;20508;-77
2023/08/03 10:31:12;;;;;;;6.03;4.97;;;31.00;99.90;;;;;;5119993;27;20461;-86
2023/08/03 10:33:49;;;;;;;5.37;4.80;;;30.90;99.90;;;;;;5103506;27;20959;-76
2023/08/03 10:36:27;;;;;;;5.43;4.90;;;31.00;99.90;;;;;;5121084;27;20446;-85
2023/08/03 10:38:53;;;;;;;5.30;4.53;;;30.90;99.90;;;;;;5121450;27;20460;-77
2023/08/03 10:41:23;;;;;;;8.10;5.17;;;30.90;99.90;;;;;;5101960;27;20467;-85
2023/08/03 10:44:13;;;;;;;10.13;7.20;;;31.00;99.90;;;;;;5100200;27;20172;-77
2023/08/03 10:46:42;;;;;;;5.00;4.60;;;31.00;99.90;;;;;;5104793;27;20454;-76
2023/08/03 10:49:20;;;;;;;8.00;5.20;;;31.10;99.90;;;;;;5094837;27;20442;-76
2023/08/03 10:51:48;;;;;;;6.67;5.97;;;31.10;99.90;;;;;;5098458;27;20765;-85
2023/08/03 10:54:18;;;;;;;5.40;5.00;;;31.20;99.90;;;;;;5132237;27;20461;-84
2023/08/03 10:57:11;;;;;;;7.07;5.20;;;31.10;99.90;;;;;;5121498;27;20499;-85
2023/08/03 10:59:47;;;;;;;6.97;5.50;;;31.10;99.90;;;;;;5121998;27;21082;-76
2023/08/03 11:02:28;;;;;;;5.10;4.50;;;31.10;99.90;;;;;;5121352;27;20954;-77
2023/08/03 11:04:55;;;;;;;7.20;5.23;;;31.10;99.90;;;;;;5121574;27;20951;-76
2023/08/03 11:07:23;;;;;;;5.57;4.90;;;31.10;99.90;;;;;;5105586;27;20455;-77
2023/08/03 11:09:52;;;;;;;6.00;4.80;;;31.10;99.90;;;;;;5124438;27;20480;-85
2023/08/03 11:12:18;;;;;;;9.37;5.17;;;31.20;99.90;;;;;;5099216;27;20595;-77
2023/08/03 11:14:45;;;;;;;9.37;4.93;;;31.20;99.90;;;;;;5094000;27;20635;-77
2023/08/03 11:17:14;;;;;;;6.87;4.97;;;31.30;99.90;;;;;;5123023;27;20411;-77
2023/08/03 11:19:40;;;;;;;5.33;4.73;;;31.30;99.90;;;;;;5103693;27;20462;-85
2023/08/03 11:22:08;;;;;;;5.70;5.20;;;31.30;99.90;;;;;;5104362;27;20439;-85
2023/08/03 11:24:34;;;;;;;5.67;5.17;;;31.30;99.90;;;;;;5123288;27;20502;-85
2023/08/03 11:27:01;;;;;;;5.10;4.40;;;31.40;99.90;;;;;;5123324;27;20431;-85
2023/08/03 11:29:27;;;;;;;5.57;5.07;;;31.40;99.90;;;;;;5102989;27;20461;-77
2023/08/03 11:31:53;;;;;;;4.90;4.40;;;31.50;99.90;;;;;;5105358;28;20429;-83
2023/08/03 11:34:20;;;;;;;6.40;5.33;;;31.60;99.90;;;;;;5105834;28;21009;-84
2023/08/03 11:36:50;;;;;;;5.73;4.33;;;31.70;99.90;;;;;;5123249;28;20202;-82
2023/08/03 11:39:16;;;;;;;5.77;5.10;;;31.70;99.90;;;;;;5124506;27;20445;-73
2023/08/03 11:41:43;;;;;;;5.20;4.50;;;31.70;99.90;;;;;;5123741;28;20512;-76
2023/08/03 11:44:09;;;;;;;6.20;4.63;;;31.80;99.90;;;;;;5106033;27;20474;-85
2023/08/03 11:46:35;;;;;;;4.83;4.43;;;31.80;99.90;;;;;;5123385;28;20674;-74
2023/08/03 11:49:02;;;;;;;5.40;4.90;;;31.80;99.90;;;;;;5125803;27;20974;-84
2023/08/03 11:51:36;;;;;;;6.97;5.40;;;31.80;99.90;;;;;;5106359;28;20415;-81
2023/08/03 11:54:03;;;;;;;5.73;5.07;;;31.80;99.90;;;;;;5128011;27;20453;-74
2023/08/03 11:56:29;;;;;;;6.57;5.90;;;31.80;99.90;;;;;;5128360;27;20429;-74
2023/08/03 11:58:59;;;;;;;8.10;5.80;;;31.80;99.90;;;;;;5129307;27;20515;-86
2023/08/03 12:01:25;;;;;;;7.00;5.10;;;31.80;99.90;;;;;;5127964;27;20474;-81
2023/08/03 12:04:03;;;;;;;5.90;5.40;;;31.80;99.90;;;;;;5128467;27;20864;-85
2023/08/03 12:06:45;;;;;;;6.10;4.83;;;31.90;99.90;;;;;;5109099;27;20424;-75
2023/08/03 12:09:23;;;;;;;6.47;5.53;;;31.90;99.90;;;;;;5128076;27;20449;-74
2023/08/03 12:11:48;;;;;;;9.00;5.43;;;31.90;99.90;;;;;;5109043;27;20930;-76
2023/08/03 12:14:15;;;;;;;7.00;4.60;;;32.00;99.90;;;;;;5108612;27;20435;-76
2023/08/03 12:16:41;;;;;;;5.83;5.00;;;32.00;99.90;;;;;;5127662;27;20174;-76
2023/08/03 12:19:09;;;;;;;7.13;4.87;;;32.10;99.90;;;;;;5106514;27;20975;-75
2023/08/03 12:21:36;;;;;;;6.17;5.67;;;32.10;99.90;;;;;;5107495;27;20243;-76
2023/08/03 12:24:05;;;;;;;4.70;4.20;;;32.10;99.90;;;;;;5126410;27;20424;-81
2023/08/03 12:26:31;;;;;;;6.23;4.90;;;32.10;99.80;;;;;;5126545;27;20715;-75
2023/08/03 12:28:57;;;;;;;8.30;4.70;;;32.10;99.80;;;;;;5107879;27;20965;-83
2023/08/03 12:31:24;;;;;;;6.57;4.90;;;32.20;99.70;;;;;;5108305;27;20777;-75
2023/08/03 12:33:50;;;;;;;8.63;5.27;;;32.20;99.70;;;;;;5107321;27;20668;-77
2023/08/03 12:36:17;;;;;;;7.30;4.90;;;32.30;99.40;;;;;;5124223;27;20522;-76
2023/08/03 12:38:43;;;;;;;6.60;4.80;;;32.30;99.30;;;;;;5124419;27;20419;-80
2023/08/03 12:41:09;;;;;;;7.37;5.10;;;32.30;99.30;;;;;;5105229;27;20482;-81
2023/08/03 12:43:35;;;;;;;6.30;5.13;;;32.30;99.40;;;;;;5121179;27;20425;-77
2023/08/03 12:46:01;;;;;;;5.20;4.70;;;32.30;99.40;;;;;;5105757;27;20777;-82
2023/08/03 12:48:27;;;;;;;5.80;4.97;;;32.30;99.30;;;;;;5108400;27;20175;-79